Time;durP1;ratioP1;P1;durP2;ratioP2;P2;SDS_P1;SDS_P2;PMS_P1;PMS_P2;Temp;Humidity;BMP_temperature;BMP_pressure;BME280_temperature;BME280_humidity;BME280_pressure;Samples;Min_cycle;Max_cycle;Signal;HPM_P1;HPM_P2
2022/01/13 00:02:31;;;;;;;99.47;12.25;;;;;;;1.49;100.00;103752.91;4997095;28;20457;-75
2022/01/13 00:04:56;;;;;;;92.38;11.50;;;;;;;1.50;100.00;103740.75;4980203;28;20041;-75
2022/01/13 00:07:22;;;;;;;68.95;10.75;;;;;;;1.77;100.00;103763.25;4979932;28;20073;-75
2022/01/13 00:09:47;;;;;;;67.57;10.98;;;;;;;1.44;100.00;103702.56;4996610;28;20037;-74
2022/01/13 00:12:15;;;;;;;108.35;12.93;;;;;;;1.87;100.00;103825.78;4998101;28;20027;-75
2022/01/13 00:14:57;;;;;;;80.45;10.52;;;;;;;1.79;100.00;103813.63;4980831;28;20026;-75
2022/01/13 00:19:58;;;;;;;84.60;10.52;;;;;;;0.70;100.00;103623.69;5016787;28;20038;-74
2022/01/13 00:25:12;;;;;;;88.53;11.63;;;;;;;1.87;100.00;103804.06;4974449;28;20012;-76
2022/01/13 00:27:42;;;;;;;87.78;11.57;;;;;;;1.94;100.00;103829.25;4960403;28;20098;-75
2022/01/13 00:30:14;;;;;;;100.20;10.60;;;;;;;1.98;100.00;103824.91;4977166;28;20077;-74
2022/01/13 00:32:40;;;;;;;64.25;11.23;;;;;;;1.76;100.00;103780.63;4977509;28;20035;-74
2022/01/13 00:35:07;;;;;;;70.90;11.10;;;;;;;1.99;100.00;103797.97;4962366;28;20537;-75
2022/01/13 00:37:34;;;;;;;62.40;10.10;;;;;;;1.62;100.00;103772.00;4981938;28;20133;-74
2022/01/13 00:40:05;;;;;;;82.18;11.00;;;;;;;1.93;100.00;103811.88;4965242;28;20090;-75
2022/01/13 00:42:31;;;;;;;61.67;10.63;;;;;;;1.43;100.00;103700.81;4976879;28;20035;-75
2022/01/13 00:44:57;;;;;;;90.95;11.32;;;;;;;1.21;100.00;103660.97;4959397;28;20037;-74
2022/01/13 00:47:23;;;;;;;90.28;13.10;;;;;;;1.69;100.00;103745.06;4959090;28;20393;-75
2022/01/13 00:49:48;;;;;;;83.68;12.55;;;;;;;1.94;100.00;103789.28;4975674;28;20077;-75
2022/01/13 00:52:14;;;;;;;111.15;10.80;;;;;;;1.84;100.00;103764.97;4958774;28;20505;-75
2022/01/13 00:54:42;;;;;;;75.82;10.63;;;;;;;1.74;100.00;103747.66;4974740;28;20027;-75
2022/01/13 00:57:08;;;;;;;55.05;11.30;;;;;;;1.52;100.00;103713.81;4974779;28;20043;-75
2022/01/13 00:59:34;;;;;;;81.35;11.02;;;;;;;0.63;100.00;103595.09;4958256;28;20133;-75
2022/01/13 01:01:59;;;;;;;82.57;11.93;;;;;;;1.25;100.00;103689.59;4979576;28;20502;-74
2022/01/13 01:04:28;;;;;;;56.47;10.80;;;;;;;2.07;100.00;103833.56;5013850;28;20041;-74
2022/01/13 01:06:54;;;;;;;60.80;10.10;;;;;;;2.10;100.00;103835.28;4997394;28;20018;-74
2022/01/13 01:09:38;;;;;;;117.00;13.98;;;;;;;1.51;100.00;103752.91;4997720;28;20030;-75
2022/01/13 01:12:04;;;;;;;74.90;10.70;;;;;;;2.18;100.00;103833.53;4997769;28;20046;-75
2022/01/13 01:14:32;;;;;;;54.47;10.15;;;;;;;1.77;100.00;103816.25;5015741;28;20099;-73
2022/01/13 01:16:59;;;;;;;63.50;10.57;;;;;;;1.62;100.00;103761.56;4998321;28;20054;-74
2022/01/13 01:19:29;;;;;;;60.38;11.63;;;;;;;2.11;100.00;103829.19;5017942;28;20034;-74
2022/01/13 01:27:28;;;;;;;70.07;10.55;;;;;;;1.80;100.00;103779.78;5019269;28;20030;-74
2022/01/13 01:30:03;;;;;;;70.85;10.68;;;;;;;2.04;100.00;103833.59;5017485;28;20060;-73
2022/01/13 01:32:30;;;;;;;75.55;11.10;;;;;;;1.74;100.00;103777.16;5001229;28;20464;-74
2022/01/13 01:34:58;;;;;;;114.55;11.85;;;;;;;1.29;100.00;103692.19;5000596;28;20022;-75
2022/01/13 01:37:26;;;;;;;86.68;12.48;;;;;;;1.69;100.00;103741.59;5019681;28;20022;-75
2022/01/13 01:39:54;;;;;;;50.58;11.05;;;;;;;2.01;100.00;103796.22;5020776;28;20080;-75
2022/01/13 01:42:25;;;;;;;86.05;11.05;;;;;;;2.09;100.00;103813.56;5019085;28;20048;-75
2022/01/13 01:44:54;;;;;;;107.70;10.25;;;;;;;1.50;100.00;103733.81;5018401;28;20049;-74
2022/01/13 01:47:22;;;;;;;66.57;10.85;;;;;;;1.98;100.00;103809.28;5019580;28;20044;-74
2022/01/13 01:49:52;;;;;;;52.30;10.75;;;;;;;1.91;100.00;103792.78;5018248;28;20061;-75
2022/01/13 01:52:20;;;;;;;76.18;12.23;;;;;;;2.03;100.00;103803.16;5018315;28;20030;-75
2022/01/13 01:54:47;;;;;;;60.40;11.43;;;;;;;0.94;100.00;103600.28;5001948;28;20026;-74
2022/01/13 01:57:13;;;;;;;81.47;11.80;;;;;;;1.99;100.00;103785.78;5018813;28;20030;-75
2022/01/13 01:59:42;;;;;;;52.67;9.05;;;;;;;1.33;100.00;103692.16;5002018;28;20026;-75
2022/01/13 02:02:10;;;;;;;72.45;10.07;;;;;;;1.92;100.00;103817.09;5018181;28;20086;-75
2022/01/13 02:04:36;;;;;;;52.90;9.50;;;;;;;0.54;100.00;103581.22;5019437;28;20045;-75
2022/01/13 02:07:04;;;;;;;74.15;10.30;;;;;;;0.88;100.00;103589.88;5024380;28;20026;-75
2022/01/13 02:09:34;;;;;;;68.35;10.60;;;;;;;1.72;100.00;103721.59;5022806;28;20125;-75
2022/01/13 02:12:04;;;;;;;63.65;10.85;;;;;;;0.79;100.00;103595.94;5019692;28;20022;-74
2022/01/13 02:14:36;;;;;;;75.95;11.27;;;;;;;0.93;100.00;103582.06;5001980;28;20026;-76
2022/01/13 02:17:12;;;;;;;63.55;10.80;;;;;;;0.78;100.00;103556.94;5001878;28;20088;-75
2022/01/13 02:19:40;;;;;;;62.65;11.65;;;;;;;2.02;100.00;103751.03;5019242;28;20064;-75
2022/01/13 02:22:07;;;;;;;60.88;11.35;;;;;;;1.69;100.00;103739.00;5038115;23;20052;-75
2022/01/13 02:24:34;;;;;;;73.50;11.38;;;;;;;1.53;100.00;103683.47;5041425;28;20044;-75
2022/01/13 02:27:01;;;;;;;63.67;12.25;;;;;;;1.57;100.00;103706.88;5041375;28;20040;-76
2022/01/13 02:29:34;;;;;;;78.32;11.95;;;;;;;1.98;100.00;103789.28;5040090;28;20025;-76
2022/01/13 02:32:01;;;;;;;63.85;11.82;;;;;;;1.77;100.00;103758.94;5060360;28;20031;-75
2022/01/13 02:34:26;;;;;;;71.80;13.43;;;;;;;1.70;100.00;103710.31;5041046;28;20024;-74
2022/01/13 02:36:55;;;;;;;67.10;13.00;;;;;;;1.37;100.00;103652.25;5023850;28;20063;-75
2022/01/13 02:39:22;;;;;;;83.45;12.75;;;;;;;2.08;100.00;103772.72;5057942;28;20454;-74
2022/01/13 02:41:48;;;;;;;102.50;12.45;;;;;;;1.29;100.00;103656.59;5057668;28;20029;-73
2022/01/13 02:44:21;;;;;;;78.07;12.27;;;;;;;1.25;100.00;103652.28;5035054;28;20028;-76
2022/01/13 02:49:23;;;;;;;73.60;12.27;;;;;;;2.07;100.00;103780.56;5039619;28;20029;-74
2022/01/13 02:51:53;;;;;;;83.43;13.50;;;;;;;2.05;100.00;103777.09;5023006;28;20378;-75
2022/01/13 02:54:20;;;;;;;87.55;13.57;;;;;;;1.81;100.00;103763.25;5005100;28;20091;-75
2022/01/13 02:56:46;;;;;;;109.53;14.15;;;;;;;1.17;100.00;103652.28;5006429;28;20052;-75
2022/01/13 02:59:13;;;;;;;80.45;13.93;;;;;;;1.92;100.00;103778.00;5041078;28;20057;-74
2022/01/13 03:01:39;;;;;;;90.60;12.95;;;;;;;1.26;100.00;103667.03;5024313;28;20029;-75
2022/01/13 03:04:08;;;;;;;71.38;13.07;;;;;;;1.82;100.00;103725.06;5022637;28;20344;-75
2022/01/13 03:06:36;;;;;;;72.32;14.02;;;;;;;1.37;100.00;103654.84;5021235;28;20114;-75
2022/01/13 03:09:08;;;;;;;72.50;14.27;;;;;;;0.83;100.00;103565.59;5040134;28;20035;-75
2022/01/13 03:11:36;;;;;;;93.47;13.43;;;;;;;0.97;100.00;103597.66;5023307;28;20026;-76
2022/01/13 03:14:05;;;;;;;76.47;13.02;;;;;;;2.00;100.00;103769.28;5039148;28;20379;-74
2022/01/13 03:16:31;;;;;;;79.68;12.60;;;;;;;1.51;100.00;103701.69;5005097;28;20033;-75
2022/01/13 03:18:57;;;;;;;106.90;12.55;;;;;;;1.78;100.00;103754.59;5021260;28;20095;-74
2022/01/13 03:21:23;;;;;;;82.47;13.45;;;;;;;1.25;100.00;103670.50;5038600;28;20046;-74
2022/01/13 03:23:50;;;;;;;92.63;12.88;;;;;;;1.88;100.00;103762.38;5022270;28;20107;-74
2022/01/13 03:26:16;;;;;;;77.90;12.32;;;;;;;1.89;100.00;103776.28;5023775;28;20040;-75
2022/01/13 03:28:51;;;;;;;90.55;13.25;;;;;;;2.05;100.00;103767.53;5023613;28;20080;-75
2022/01/13 03:31:23;;;;;;;67.20;10.27;;;;;;;1.65;100.00;103715.53;5022823;28;20029;-74
2022/01/13 03:33:50;;;;;;;104.00;13.10;;;;;;;1.48;100.00;103700.81;5022354;28;20033;-75
2022/01/13 03:36:17;;;;;;;84.40;10.93;;;;;;;1.26;100.00;103654.00;5024022;28;20460;-75
2022/01/13 03:38:44;;;;;;;123.53;13.40;;;;;;;1.94;100.00;103761.50;5024473;28;20028;-74
2022/01/13 03:41:10;;;;;;;125.47;13.57;;;;;;;1.08;100.00;103626.28;5025811;28;20026;-75
2022/01/13 03:43:37;;;;;;;119.03;12.48;;;;;;;0.76;100.00;103558.69;4993105;28;20112;-75
2022/01/13 03:46:11;;;;;;;98.05;12.18;;;;;;;1.97;100.00;103727.59;5025103;28;20045;-77
2022/01/13 03:48:36;;;;;;;126.63;13.13;;;;;;;0.69;100.00;103542.22;5024750;28;20030;-75
2022/01/13 03:51:02;;;;;;;118.13;12.15;;;;;;;0.75;100.00;103541.34;5007209;28;20036;-75
2022/01/13 03:53:31;;;;;;;121.93;13.05;;;;;;;2.01;100.00;103738.88;5023757;28;20025;-76
2022/01/13 03:56:19;;;;;;;97.60;12.18;;;;;;;2.03;100.00;103735.38;5025205;28;20082;-76
2022/01/13 03:59:12;;;;;;;113.22;12.63;;;;;;;2.01;100.00;103729.31;4981920;28;20042;-76
2022/01/13 04:01:59;;;;;;;88.75;11.60;;;;;;;1.14;100.00;103602.84;4980815;28;20114;-76
2022/01/13 04:04:26;;;;;;;96.25;12.40;;;;;;;1.96;100.00;103740.66;4950067;28;20038;-75
2022/01/13 04:07:07;;;;;;;126.22;14.30;;;;;;;2.06;100.00;103729.28;4963308;28;20031;-76
2022/01/13 04:09:51;;;;;;;98.00;12.90;;;;;;;2.07;100.00;103731.91;4983079;28;20038;-75
2022/01/13 04:12:20;;;;;;;161.38;13.55;;;;;;;2.08;100.00;103722.34;4983920;28;20058;-74
2022/01/13 04:14:52;;;;;;;105.35;13.48;;;;;;;2.16;100.00;103706.66;4985643;28;20398;-73
2022/01/13 04:17:22;;;;;;;109.00;13.10;;;;;;;1.96;100.00;103685.91;4973272;28;20038;-73
2022/01/13 04:20:05;;;;;;;103.93;14.25;;;;;;;1.89;100.00;103708.53;4990732;28;20035;-74
2022/01/13 04:22:40;;;;;;;104.82;13.23;;;;;;;2.12;100.00;103744.91;4975655;28;20055;-73
2022/01/13 04:25:21;;;;;;;96.75;12.85;;;;;;;2.16;100.00;103741.44;4975751;28;20051;-73
2022/01/13 04:27:48;;;;;;;94.20;13.25;;;;;;;1.85;100.00;103668.56;4992702;28;20095;-73
2022/01/13 04:32:40;;;;;;;106.93;13.10;;;;;;;2.17;100.00;103727.50;4976558;28;20034;-73
2022/01/13 04:35:06;;;;;;;112.38;13.88;;;;;;;1.64;100.00;103635.66;5007717;28;20045;-74
2022/01/13 04:37:32;;;;;;;85.53;13.60;;;;;;;2.15;100.00;103726.66;5052375;28;20029;-73
2022/01/13 04:39:58;;;;;;;101.78;13.82;;;;;;;2.23;100.00;103735.31;5052147;28;20033;-74
2022/01/13 04:42:26;;;;;;;100.93;13.75;;;;;;;2.22;100.00;103745.72;5048746;28;20021;-74
2022/01/13 04:44:52;;;;;;;134.18;16.08;;;;;;;2.12;100.00;103742.31;5051411;28;20045;-73
2022/01/13 04:47:17;;;;;;;133.43;15.15;;;;;;;2.14;100.00;103722.31;5051571;28;20026;-74
2022/01/13 04:49:42;;;;;;;125.40;16.27;;;;;;;2.17;100.00;103737.06;5012892;28;20025;-74
2022/01/13 04:52:08;;;;;;;120.63;15.25;;;;;;;2.12;100.00;103731.03;5039932;28;20029;-74
2022/01/13 04:54:33;;;;;;;136.25;16.15;;;;;;;2.04;100.00;103712.78;5045609;28;20101;-74
2022/01/13 04:57:15;;;;;;;97.95;13.93;;;;;;;2.09;100.00;103726.69;5033563;28;20089;-74
2022/01/13 04:59:41;;;;;;;113.32;15.10;;;;;;;2.21;100.00;103729.22;5047424;28;20029;-75
2022/01/13 05:02:07;;;;;;;113.47;16.52;;;;;;;2.06;100.00;103708.44;5041619;28;20021;-75
2022/01/13 05:04:36;;;;;;;114.00;14.25;;;;;;;2.17;100.00;103740.53;5043009;28;20041;-75
2022/01/13 05:07:03;;;;;;;139.32;15.00;;;;;;;2.07;100.00;103707.59;5027489;28;20550;-74
2022/01/13 05:09:29;;;;;;;125.13;16.98;;;;;;;2.24;100.00;103749.19;5041043;28;20037;-75
2022/01/13 05:11:57;;;;;;;142.60;16.98;;;;;;;2.13;100.00;103727.53;5046037;28;20488;-73
2022/01/13 05:14:22;;;;;;;121.53;15.75;;;;;;;1.64;100.00;103642.63;5009385;28;20021;-74
2022/01/13 05:19:25;;;;;;;115.25;16.60;;;;;;;2.36;100.00;103758.69;5043473;28;20025;-74
2022/01/13 05:24:23;;;;;;;113.80;15.45;;;;;;;2.37;100.00;103740.44;5020301;28;20088;-73
2022/01/13 05:26:49;;;;;;;117.97;16.05;;;;;;;2.13;100.00;103719.72;5036306;28;20043;-73
2022/01/13 05:29:19;;;;;;;98.18;16.38;;;;;;;2.25;100.00;103749.22;5034630;28;20022;-74
2022/01/13 05:31:45;;;;;;;125.78;18.05;;;;;;;2.53;100.00;103764.72;5017898;28;20026;-75
2022/01/13 05:34:11;;;;;;;120.72;16.45;;;;;;;2.50;100.00;103763.00;5020030;28;20021;-77
2022/01/13 05:36:49;;;;;;;126.20;19.73;;;;;;;2.73;100.00;103767.19;5041255;28;20476;-76
2022/01/13 05:39:21;;;;;;;107.50;16.67;;;;;;;2.09;100.00;103654.56;5038673;28;20025;-76
2022/01/13 05:41:47;;;;;;;132.95;17.73;;;;;;;1.98;100.00;103630.28;5020869;28;20021;-77
2022/01/13 05:44:13;;;;;;;120.45;16.85;;;;;;;1.52;100.00;103560.16;5038378;28;20377;-76
2022/01/13 05:46:39;;;;;;;118.88;15.93;;;;;;;2.55;100.00;103754.28;5020695;28;20399;-76
2022/01/13 05:49:05;;;;;;;116.50;17.02;;;;;;;2.66;100.00;103757.69;5036519;28;20029;-76
2022/01/13 05:51:32;;;;;;;130.20;16.67;;;;;;;2.51;100.00;103733.41;5036331;28;20021;-75
2022/01/13 05:53:58;;;;;;;102.65;17.08;;;;;;;2.71;100.00;103748.94;5059031;28;20029;-73
2022/01/13 05:56:24;;;;;;;135.93;17.52;;;;;;;2.24;100.00;103686.63;5043337;28;20021;-75
2022/01/13 05:58:50;;;;;;;119.25;15.80;;;;;;;2.51;100.00;103756.03;5034187;28;20017;-75
2022/01/13 06:01:16;;;;;;;124.13;17.33;;;;;;;2.02;100.00;103659.78;5055380;28;20032;-74
2022/01/13 06:03:42;;;;;;;139.95;16.88;;;;;;;2.00;100.00;103682.41;5029775;28;20374;-73
2022/01/13 06:06:08;;;;;;;127.20;17.10;;;;;;;2.46;100.00;103747.38;5070902;28;20036;-74
2022/01/13 06:08:34;;;;;;;104.25;15.65;;;;;;;2.55;100.00;103760.34;5029281;28;20035;-73
2022/01/13 06:11:00;;;;;;;104.18;16.65;;;;;;;2.33;100.00;103722.22;5040965;28;20387;-73
2022/01/13 06:13:26;;;;;;;159.05;29.17;;;;;;;2.61;100.00;103752.50;5079085;28;20027;-74
2022/01/13 06:15:52;;;;;;;128.05;16.08;;;;;;;2.45;100.00;103753.44;5043659;28;20020;-75
2022/01/13 06:18:17;;;;;;;105.15;17.33;;;;;;;2.28;100.00;103683.13;5044419;28;20040;-75
2022/01/13 06:20:43;;;;;;;121.25;18.17;;;;;;;2.34;100.00;103696.16;5058611;28;20024;-74
2022/01/13 06:23:11;;;;;;;123.68;18.13;;;;;;;2.52;100.00;103760.34;5058412;28;20090;-74
2022/01/13 06:25:38;;;;;;;91.63;19.08;;;;;;;2.55;100.00;103730.78;5026276;28;20115;-73
2022/01/13 06:28:05;;;;;;;101.35;18.25;;;;;;;2.67;100.00;103754.19;5041642;28;20036;-74
2022/01/13 06:30:31;;;;;;;107.90;15.57;;;;;;;2.56;100.00;103753.38;5035857;28;20021;-73
2022/01/13 06:32:57;;;;;;;105.90;17.48;;;;;;;2.21;100.00;103687.50;5039255;28;20020;-74
2022/01/13 06:35:23;;;;;;;101.60;18.00;;;;;;;2.50;100.00;103746.47;5036803;28;20021;-74
2022/01/13 06:37:48;;;;;;;121.00;18.88;;;;;;;2.43;100.00;103726.50;5069735;28;20051;-73
2022/01/13 06:40:17;;;;;;;121.82;19.08;;;;;;;2.35;100.00;103694.41;5078841;28;20024;-73
2022/01/13 06:42:43;;;;;;;91.68;17.38;;;;;;;2.07;100.00;103645.88;5071267;28;20013;-73
2022/01/13 06:45:10;;;;;;;117.63;17.80;;;;;;;2.67;100.00;103757.66;5057524;28;20063;-76
2022/01/13 06:47:40;;;;;;;105.78;18.30;;;;;;;2.40;100.00;103718.69;5055899;28;20095;-76
2022/01/13 06:50:08;;;;;;;113.10;18.33;;;;;;;2.50;100.00;103717.78;5036894;28;20024;-76
2022/01/13 06:52:35;;;;;;;102.03;17.73;;;;;;;1.85;100.00;103598.22;5039251;28;20056;-74
2022/01/13 06:55:01;;;;;;;91.97;18.67;;;;;;;2.50;100.00;103708.22;5038814;28;20043;-73
2022/01/13 06:57:29;;;;;;;126.03;19.58;;;;;;;2.48;100.00;103701.28;5018842;28;20017;-74
2022/01/13 06:59:55;;;;;;;128.98;21.02;;;;;;;2.20;100.00;103667.53;5030641;28;20020;-75
2022/01/13 07:02:23;;;;;;;132.32;19.90;;;;;;;2.85;100.00;103742.75;5051855;28;20035;-74
2022/01/13 07:04:48;;;;;;;110.13;17.38;;;;;;;2.05;100.00;103621.56;5051381;28;20491;-74
2022/01/13 07:07:15;;;;;;;100.22;18.55;;;;;;;2.80;100.00;103755.84;5067291;28;20104;-74
2022/01/13 07:09:41;;;;;;;94.05;17.80;;;;;;;2.57;100.00;103723.84;5074990;28;20028;-73
2022/01/13 07:12:09;;;;;;;121.22;29.27;;;;;;;2.91;100.00;103755.78;5049736;28;20028;-74
2022/01/13 07:14:35;;;;;;;109.75;23.00;;;;;;;2.67;100.00;103733.31;5035141;28;20028;-71
2022/01/13 07:17:01;;;;;;;105.13;19.38;;;;;;;2.80;100.00;103748.00;5043416;28;20025;-75
2022/01/13 07:19:27;;;;;;;99.60;17.52;;;;;;;2.26;100.00;103648.38;5064112;28;20025;-74
2022/01/13 07:21:53;;;;;;;104.35;18.60;;;;;;;2.34;100.00;103662.25;5037282;28;20353;-73
2022/01/13 07:24:18;;;;;;;95.10;18.05;;;;;;;2.35;100.00;103697.88;5038652;28;20056;-75
2022/01/13 07:26:44;;;;;;;108.65;18.65;;;;;;;1.64;100.00;103548.84;5033800;28;20036;-73
2022/01/13 07:29:10;;;;;;;98.97;17.85;;;;;;;2.15;100.00;103653.66;5042135;28;20206;-72
2022/01/13 07:31:37;;;;;;;102.05;18.25;;;;;;;2.58;100.00;103718.59;5052481;28;20025;-72
2022/01/13 07:34:03;;;;;;;103.50;18.27;;;;;;;2.81;100.00;103756.69;5072707;28;20048;-72
2022/01/13 07:36:29;;;;;;;104.65;17.80;;;;;;;2.58;100.00;103746.41;5058744;28;20100;-73
2022/01/13 07:38:54;;;;;;;96.85;19.38;;;;;;;2.92;100.00;103747.91;5041129;28;20044;-72
2022/01/13 07:41:21;;;;;;;105.45;19.83;;;;;;;2.57;100.00;103703.81;5041232;28;20024;-75
2022/01/13 07:43:53;;;;;;;107.28;19.02;;;;;;;2.12;100.00;103626.75;5071581;28;20025;-74
2022/01/13 07:46:23;;;;;;;101.60;17.90;;;;;;;2.56;100.00;103716.88;5071979;28;20032;-76
2022/01/13 07:48:49;;;;;;;100.78;18.10;;;;;;;2.31;100.00;103664.84;5066839;28;20028;-79
2022/01/13 07:51:15;;;;;;;90.75;18.00;;;;;;;2.77;100.00;103748.03;5055311;28;20065;-73
2022/01/13 07:53:42;;;;;;;118.95;17.50;;;;;;;2.29;100.00;103682.25;5071050;28;20023;-73
2022/01/13 07:56:07;;;;;;;113.15;19.48;;;;;;;2.60;100.00;103685.53;5030280;28;20119;-73
2022/01/13 07:58:35;;;;;;;91.40;17.35;;;;;;;2.94;100.00;103750.53;5039034;28;20013;-76
2022/01/13 08:01:02;;;;;;;127.30;18.40;;;;;;;3.04;100.00;103780.03;5045764;28;20031;-74
2022/01/13 08:03:27;;;;;;;101.13;17.27;;;;;;;2.69;100.00;103732.44;5034107;28;20024;-74
2022/01/13 08:05:53;;;;;;;91.25;18.33;;;;;;;2.59;100.00;103689.03;5041979;28;20416;-74
2022/01/13 08:08:19;;;;;;;99.72;17.70;;;;;;;2.64;100.00;103671.59;5035908;28;20032;-74
2022/01/13 08:10:48;;;;;;;103.47;20.02;;;;;;;2.77;100.00;103708.91;5056371;28;20352;-75
2022/01/13 08:13:13;;;;;;;107.43;20.15;;;;;;;2.85;100.00;103733.19;5052566;28;20134;-75
2022/01/13 08:15:40;;;;;;;104.80;19.58;;;;;;;2.27;100.00;103635.34;5050328;28;20070;-74
2022/01/13 08:21:10;;;;;;;96.18;18.75;;;;;;;3.08;100.00;103779.13;4981739;28;20054;-74
2022/01/13 08:23:35;;;;;;;98.70;18.95;;;;;;;2.87;100.00;103746.22;4991618;28;20127;-76
2022/01/13 08:26:02;;;;;;;106.28;26.88;;;;;;;2.42;100.00;103646.53;4987337;28;20049;-74
2022/01/13 08:28:28;;;;;;;104.20;20.38;;;;;;;3.01;100.00;103740.91;4986542;28;20030;-75
2022/01/13 08:30:59;;;;;;;75.75;18.02;;;;;;;2.95;100.00;103722.66;4952515;28;20137;-76
2022/01/13 08:33:25;;;;;;;124.40;20.90;;;;;;;3.21;100.00;103770.31;4984805;28;20459;-74
2022/01/13 08:35:52;;;;;;;103.93;20.90;;;;;;;3.09;100.00;103747.81;4992957;28;20114;-74
2022/01/13 08:38:19;;;;;;;115.32;21.38;;;;;;;3.17;100.00;103780.81;4972052;28;20049;-74
2022/01/13 08:40:59;;;;;;;123.93;24.02;;;;;;;3.40;100.00;103781.47;4994401;28;20558;-72
2022/01/13 08:43:26;;;;;;;102.78;18.80;;;;;;;3.41;100.00;103785.84;4977244;28;20374;-72
2022/01/13 08:45:53;;;;;;;95.20;19.67;;;;;;;2.75;100.00;103689.78;4994679;28;20583;-72
2022/01/13 08:48:21;;;;;;;86.22;18.10;;;;;;;3.28;100.00;103781.59;4972467;28;20058;-75
2022/01/13 08:50:47;;;;;;;99.57;20.13;;;;;;;2.77;100.00;103697.56;4962652;28;20046;-75
2022/01/13 08:53:17;;;;;;;97.07;19.38;;;;;;;3.11;100.00;103748.66;5021936;28;20067;-74
2022/01/13 08:55:44;;;;;;;88.30;17.63;;;;;;;3.32;100.00;103783.31;5019902;28;20069;-74
2022/01/13 08:58:10;;;;;;;94.95;23.60;;;;;;;3.28;100.00;103772.00;5039438;28;20029;-74
2022/01/13 09:00:37;;;;;;;96.38;19.17;;;;;;;3.30;100.00;103795.50;5056240;28;20031;-73
2022/01/13 09:03:08;;;;;;;90.30;19.13;;;;;;;3.34;100.00;103777.19;5055210;28;20372;-74
2022/01/13 09:05:36;;;;;;;85.15;19.25;;;;;;;3.15;100.00;103757.31;5037425;28;20111;-74
2022/01/13 09:08:04;;;;;;;81.70;18.10;;;;;;;2.92;100.00;103706.16;5054639;28;19912;-75
2022/01/13 09:10:30;;;;;;;84.85;18.33;;;;;;;3.33;100.00;103770.22;5020804;28;20021;-75
2022/01/13 09:12:56;;;;;;;83.15;18.40;;;;;;;3.01;100.00;103731.31;5054351;28;20115;-73
2022/01/13 09:15:32;;;;;;;85.50;17.63;;;;;;;3.34;100.00;103750.19;5041564;28;20117;-73
2022/01/13 09:18:06;;;;;;;94.63;18.67;;;;;;;3.52;100.00;103780.47;5051072;28;20024;-73
2022/01/13 09:20:32;;;;;;;85.85;18.02;;;;;;;3.61;100.00;103783.03;5056971;28;20029;-73
2022/01/13 09:22:57;;;;;;;98.72;18.58;;;;;;;3.34;100.00;103738.00;5074466;28;20059;-73
2022/01/13 09:25:23;;;;;;;76.47;19.02;;;;;;;3.72;100.00;103777.69;5076325;28;20041;-73
2022/01/13 09:27:49;;;;;;;79.43;18.15;;;;;;;3.63;100.00;103749.88;5087463;28;20032;-74
2022/01/13 09:30:18;;;;;;;96.43;19.23;;;;;;;3.60;100.00;103756.91;5059317;28;20033;-73
2022/01/13 09:32:45;;;;;;;81.80;18.95;;;;;;;3.74;100.00;103775.91;5075252;28;20025;-73
2022/01/13 09:35:10;;;;;;;85.82;19.77;;;;;;;3.66;100.00;103752.50;5052749;28;20025;-74
2022/01/13 09:37:37;;;;;;;83.63;20.33;;;;;;;3.74;100.00;103753.25;5051552;28;20085;-75
2022/01/13 09:40:07;;;;;;;87.93;20.23;;;;;;;3.78;100.00;103758.47;5040856;28;20032;-73
2022/01/13 09:42:34;;;;;;;96.97;20.23;;;;;;;3.88;100.00;103763.56;5052765;28;20020;-74
2022/01/13 09:45:04;;;;;;;98.68;24.05;;;;;;;3.96;100.00;103771.34;5051950;28;20078;-74
2022/01/13 09:47:30;;;;;;;93.65;20.45;;;;;;;4.05;100.00;103779.06;5068627;28;20025;-75
2022/01/13 09:49:57;;;;;;;92.13;20.17;;;;;;;3.85;100.00;103742.69;5061718;28;20104;-74
2022/01/13 09:52:23;;;;;;;;;;;;;;;3.99;100.00;103773.91;5026516;28;20232;-74
2022/01/13 09:54:49;;;;;;;;;;;;;;;4.07;100.00;103773.84;5061051;28;19917;-74
2022/01/13 09:57:14;;;;;;;;;;;;;;;4.11;100.00;103772.88;5041170;28;19909;-74
2022/01/13 09:59:40;;;;;;;;;;;;;;;4.07;100.00;103781.69;5024533;28;19913;-75
2022/01/13 10:02:07;;;;;;;;;;;;;;;4.03;100.00;103772.13;5024268;28;19913;-73
2022/01/13 10:04:53;;;;;;;;;;;;;;;4.14;100.00;103785.94;5040419;28;19958;-72
2022/01/13 10:07:41;;;;;;;;;;;;;;;4.11;100.00;103780.72;5057075;28;20377;-73
2022/01/13 10:10:08;;;;;;;;;;;;;;;4.14;100.00;103783.31;5039999;28;20002;-74
2022/01/13 10:12:38;;;;;;;;;;;;;;;4.16;100.00;103782.41;5058273;28;19919;-73
2022/01/13 10:18:03;;;;;;;;;;;;;;;4.08;100.00;103773.78;5063499;28;19939;-73
2022/01/13 10:20:29;;;;;;;;;;;;;;;4.14;100.00;103776.34;4987906;28;20296;-72
2022/01/13 10:23:05;;;;;;;;;;;;;;;4.16;100.00;103778.94;4992474;28;20338;-74
2022/01/13 10:25:32;;;;;;;;;;;;;;;4.14;100.00;103772.88;4986211;28;19917;-74
2022/01/13 10:28:16;;;;;;;;;;;;;;;4.19;100.00;103779.75;4973187;28;19928;-74
2022/01/13 10:30:43;;;;;;;;;;;;;;;4.22;100.00;103776.22;4977838;28;19920;-73
2022/01/13 10:33:19;;;;;;;;;;;;;;;4.23;100.00;103779.75;4993184;28;19945;-75
2022/01/13 10:35:45;;;;;;;;;;;;;;;4.26;100.00;103767.47;4982300;28;19926;-75
2022/01/13 10:38:13;;;;;;;;;;;;;;;4.32;100.00;103782.25;4975473;28;19918;-75
2022/01/13 10:40:40;;;;;;;;;;;;;;;4.18;100.00;103783.28;4975373;28;20008;-74
2022/01/13 10:43:09;;;;;;;;;;;;;;;4.30;100.00;103774.41;4977228;28;19980;-75
2022/01/13 10:45:46;;;;;;;;;;;;;;;4.46;100.00;103776.81;4976061;28;20013;-73
2022/01/13 10:48:18;;;;;;;;;;;;;;;4.30;100.00;103774.41;4978722;28;20041;-73
2022/01/13 10:50:50;;;;;;;;;;;;;;;4.32;100.00;103767.41;4975595;28;20008;-73
2022/01/13 10:53:22;;;;;;;;;;;;;;;4.23;100.00;103771.88;4990421;28;19928;-76
2022/01/13 10:55:52;;;;;;;;;;;;;;;4.36;100.00;103763.88;4997107;28;19949;-74
2022/01/13 10:58:19;;;;;;;;;;;;;;;4.28;100.00;103763.09;5057081;28;19954;-75
2022/01/13 11:00:46;;;;;;;;;;;;;;;4.24;100.00;103763.16;5035008;28;19909;-74
2022/01/13 11:03:14;;;;;;;;;;;;;;;4.34;100.00;103764.78;5053075;28;19948;-73
2022/01/13 11:05:42;;;;;;;;;;;;;;;4.21;100.00;103766.66;5042790;28;20006;-74
2022/01/13 11:08:08;;;;;;;;;;;;;;;4.28;100.00;103763.09;5068039;28;19919;-73
2022/01/13 11:10:34;;;;;;;;;;;;;;;4.28;100.00;103757.84;5070378;28;19930;-75
2022/01/13 11:13:03;;;;;;;;;;;;;;;4.28;100.00;103762.22;5056479;28;19920;-73
2022/01/13 11:15:28;;;;;;;;;;;;;;;4.33;100.00;103758.66;5046885;28;19913;-72
2022/01/13 11:17:55;;;;;;;;;;;;;;;4.41;100.00;103755.09;5053017;28;19908;-75
2022/01/13 11:20:22;;;;;;;;;;;;;;;4.37;100.00;103746.41;5070713;28;20346;-73
2022/01/13 11:22:48;;;;;;;;;;;;;;;4.39;100.00;103749.88;5044617;28;19923;-74
2022/01/13 11:25:16;;;;;;;;;;;;;;;4.36;100.00;103753.41;5019414;28;19917;-74
2022/01/13 11:27:43;;;;;;;66.50;21.90;;;;;;;3.96;100.00;103667.59;5053138;28;20053;-73
2022/01/13 11:30:20;;;;;;;64.65;22.60;;;;;;;4.23;100.00;103740.50;5038259;28;20027;-71
2022/01/13 11:32:47;;;;;;;64.07;22.55;;;;;;;3.96;100.00;103711.19;5022464;28;20012;-72
2022/01/13 11:35:19;;;;;;;71.60;21.40;;;;;;;4.17;100.00;103710.91;5022185;28;20029;-73
2022/01/13 11:37:45;;;;;;;64.07;23.15;;;;;;;4.29;100.00;103729.94;5022442;28;20021;-73
2022/01/13 11:40:26;;;;;;;63.70;22.00;;;;;;;4.42;100.00;103715.81;5038733;28;20025;-75
2022/01/13 11:42:53;;;;;;;66.18;22.27;;;;;;;4.46;100.00;103717.50;5020495;28;20031;-74
2022/01/13 11:45:20;;;;;;;71.78;23.90;;;;;;;3.91;100.00;103652.88;5041328;28;20114;-74
2022/01/13 11:47:47;;;;;;;72.40;25.13;;;;;;;4.35;100.00;103722.88;5036277;28;20033;-74
2022/01/13 11:50:30;;;;;;;75.97;27.52;;;;;;;3.84;100.00;103640.75;5045442;28;20502;-74